Time;durP1;ratioP1;P1;durP2;ratioP2;P2;SDS_P1;SDS_P2;PMS_P1;PMS_P2;Temp;Humidity;BMP_temperature;BMP_pressure;BME280_temperature;BME280_humidity;BME280_pressure;Samples;Min_cycle;Max_cycle;Signal;HPM_P1;HPM_P2
2023/09/25 00:02:10;;;;;;;1.90;1.27;;;;;;;16.70;100.00;100306.00;6270038;28;20055;-74
2023/09/25 00:05:11;;;;;;;1.37;1.00;;;;;;;16.83;100.00;100301.41;6264828;28;20147;-74
2023/09/25 00:08:12;;;;;;;3.45;1.60;;;;;;;16.81;100.00;100310.41;6253615;28;20140;-74
2023/09/25 00:11:13;;;;;;;1.70;1.30;;;;;;;16.89;100.00;100310.59;6267811;28;20513;-74
2023/09/25 00:14:14;;;;;;;4.25;1.25;;;;;;;16.87;100.00;100297.53;6248867;28;20057;-74
2023/09/25 00:17:14;;;;;;;3.28;1.55;;;;;;;16.70;100.00;100292.81;6244903;28;20140;-74
2023/09/25 00:20:20;;;;;;;5.10;1.42;;;;;;;16.71;100.00;100286.59;6247790;28;20084;-74
2023/09/25 00:23:20;;;;;;;3.83;1.48;;;;;;;16.81;100.00;100276.16;6270689;28;20056;-74
2023/09/25 00:26:21;;;;;;;2.80;1.42;;;;;;;16.92;100.00;100278.72;6260191;28;20084;-74
2023/09/25 00:29:22;;;;;;;1.25;1.15;;;;;;;16.91;100.00;100298.97;6253068;28;20247;-74
2023/09/25 00:32:24;;;;;;;4.35;1.52;;;;;;;16.98;100.00;100301.09;6249711;28;20073;-74
2023/09/25 00:35:27;;;;;;;2.13;1.20;;;;;;;16.86;100.00;100282.72;6259567;28;20041;-74
2023/09/25 00:38:28;;;;;;;4.47;1.52;;;;;;;16.90;100.00;100293.81;6268618;28;20404;-74
2023/09/25 00:41:29;;;;;;;4.68;1.35;;;;;;;17.01;100.00;100308.75;6267452;28;20053;-74
2023/09/25 00:44:30;;;;;;;2.03;1.05;;;;;;;16.97;100.00;100302.06;6264613;28;20126;-74
2023/09/25 00:47:31;;;;;;;6.55;1.30;;;;;;;16.97;100.00;100316.06;6254373;28;20050;-74
2023/09/25 00:50:34;;;;;;;4.38;1.35;;;;;;;17.05;100.00;100326.81;6246489;28;20049;-74
2023/09/25 00:53:35;;;;;;;2.65;1.40;;;;;;;17.18;100.00;100344.22;6244332;28;20311;-73
2023/09/25 00:56:36;;;;;;;5.13;1.63;;;;;;;17.25;100.00;100356.75;6256821;28;20056;-74
2023/09/25 00:59:39;;;;;;;5.07;1.60;;;;;;;16.98;100.00;100349.34;6263734;28;20045;-74
2023/09/25 01:02:41;;;;;;;5.25;1.33;;;;;;;17.07;100.00;100372.34;6264823;28;20045;-74
2023/09/25 01:05:42;;;;;;;2.55;1.15;;;;;;;17.21;100.00;100430.97;6268173;28;20056;-74
2023/09/25 01:08:43;;;;;;;2.57;1.20;;;;;;;17.29;100.00;100463.66;6274460;28;20049;-74
2023/09/25 01:11:46;;;;;;;3.20;1.42;;;;;;;17.45;100.00;100483.50;6268155;28;20045;-74
2023/09/25 01:14:50;;;;;;;6.85;1.20;;;;;;;17.45;100.00;100513.34;6271160;28;20493;-74
2023/09/25 01:17:51;;;;;;;4.00;1.38;;;;;;;17.50;100.00;100520.88;6272430;28;20056;-74
2023/09/25 01:20:52;;;;;;;6.38;1.30;;;;;;;17.62;100.00;100535.69;6255816;28;20505;-74
2023/09/25 01:23:53;;;;;;;3.45;1.60;;;;;;;17.63;100.00;100521.53;6256259;28;20459;-74
2023/09/25 01:26:54;;;;;;;5.45;1.63;;;;;;;17.62;100.00;100519.03;6250094;28;20052;-74
2023/09/25 01:29:55;;;;;;;3.25;1.30;;;;;;;17.53;100.00;100518.81;6248907;28;20492;-73
2023/09/25 01:32:57;;;;;;;1.83;1.10;;;;;;;17.47;100.00;100507.94;6249928;28;20055;-74
2023/09/25 01:36:00;;;;;;;2.13;1.30;;;;;;;17.47;100.00;100500.03;6249969;28;20060;-74
2023/09/25 01:39:02;;;;;;;1.08;0.98;;;;;;;17.36;100.00;100503.56;6254189;28;20045;-74
2023/09/25 01:42:03;;;;;;;1.75;1.30;;;;;;;17.31;100.00;100503.09;6274684;28;20056;-74
2023/09/25 01:45:04;;;;;;;2.05;1.23;;;;;;;17.20;100.00;100509.25;6273108;28;20416;-74
2023/09/25 01:48:06;;;;;;;3.88;1.33;;;;;;;17.02;100.00;100497.56;6274115;28;20577;-74
2023/09/25 01:51:09;;;;;;;1.92;1.00;;;;;;;17.11;100.00;100513.47;6273121;28;20105;-74
2023/09/25 01:54:12;;;;;;;2.33;1.20;;;;;;;17.12;100.00;100507.22;6273027;28;20049;-74
2023/09/25 01:57:13;;;;;;;3.17;1.40;;;;;;;17.11;100.00;100494.16;6273044;28;20409;-74
2023/09/25 02:00:16;;;;;;;1.77;1.15;;;;;;;17.04;100.00;100498.28;6273120;28;20045;-74
2023/09/25 02:03:17;;;;;;;5.30;1.45;;;;;;;17.04;100.00;100506.19;6274087;28;20444;-74
2023/09/25 02:06:18;;;;;;;2.05;1.30;;;;;;;17.00;100.00;100517.94;6272688;28;20056;-74
2023/09/25 02:09:19;;;;;;;2.72;1.55;;;;;;;16.89;100.00;100516.19;6271535;28;20084;-74
2023/09/25 02:12:20;;;;;;;1.50;1.30;;;;;;;16.85;100.00;100506.84;6248902;28;20054;-74
2023/09/25 02:15:21;;;;;;;1.75;1.25;;;;;;;16.83;100.00;100501.69;6247919;28;20102;-74
2023/09/25 02:18:22;;;;;;;1.88;1.27;;;;;;;16.59;100.00;100487.78;6246992;28;20057;-74
2023/09/25 02:21:26;;;;;;;7.30;1.25;;;;;;;16.69;100.00;100494.00;6247845;28;20049;-74
2023/09/25 02:24:27;;;;;;;5.35;1.33;;;;;;;16.80;100.00;100509.81;6248737;28;20057;-74
2023/09/25 02:27:30;;;;;;;2.13;1.10;;;;;;;16.73;100.00;100517.34;6248594;28;20049;-74
2023/09/25 02:30:32;;;;;;;1.67;1.10;;;;;;;16.83;100.00;100524.56;6248626;28;20088;-74
2023/09/25 02:33:35;;;;;;;4.18;1.20;;;;;;;16.84;100.00;100531.50;6248648;28;20053;-74
2023/09/25 02:36:36;;;;;;;2.22;1.13;;;;;;;16.80;100.00;100528.25;6248472;28;20053;-74
2023/09/25 02:39:37;;;;;;;2.45;1.40;;;;;;;16.67;100.00;100527.53;6246984;28;20061;-74
2023/09/25 02:42:40;;;;;;;1.65;1.23;;;;;;;16.79;100.00;100523.09;6248182;28;20584;-74
2023/09/25 02:45:40;;;;;;;5.38;1.73;;;;;;;16.69;100.00;100537.00;6247964;28;20053;-75
2023/09/25 02:48:42;;;;;;;5.30;1.58;;;;;;;16.84;100.00;100524.47;6247774;28;20068;-74
2023/09/25 02:51:45;;;;;;;9.05;1.75;;;;;;;16.85;100.00;100512.09;6247815;28;20417;-74
2023/09/25 02:54:46;;;;;;;1.60;1.00;;;;;;;16.79;100.00;100518.66;6246589;28;20140;-74
2023/09/25 02:57:47;;;;;;;5.15;1.35;;;;;;;16.79;100.00;100523.94;6247829;28;20441;-74
2023/09/25 03:00:50;;;;;;;4.10;1.42;;;;;;;16.89;100.00;100518.81;6246410;28;20053;-74
2023/09/25 03:03:51;;;;;;;3.67;1.45;;;;;;;16.75;100.00;100517.22;6247728;28;20057;-74
2023/09/25 03:06:56;;;;;;;5.13;1.20;;;;;;;16.73;100.00;100514.72;6247591;28;20136;-74
2023/09/25 03:09:57;;;;;;;1.95;0.80;;;;;;;16.88;100.00;100512.72;6246458;28;20054;-74
2023/09/25 03:12:58;;;;;;;2.90;1.42;;;;;;;16.90;100.00;100512.56;6247445;28;20053;-74
2023/09/25 03:15:59;;;;;;;1.75;0.98;;;;;;;16.75;100.00;100513.78;6247367;28;20095;-74
2023/09/25 03:19:00;;;;;;;5.20;1.65;;;;;;;16.63;100.00;100524.31;6245984;28;20049;-74
2023/09/25 03:22:04;;;;;;;2.60;1.10;;;;;;;16.55;100.00;100533.78;6246336;28;20128;-74
2023/09/25 03:25:07;;;;;;;1.92;1.05;;;;;;;16.74;100.00;100552.47;6247211;28;20051;-74
2023/09/25 03:28:08;;;;;;;3.92;0.90;;;;;;;16.87;100.00;100560.25;6246383;28;20045;-74
2023/09/25 03:31:10;;;;;;;3.70;1.10;;;;;;;16.92;100.00;100563.34;6245944;28;20413;-74
2023/09/25 03:34:11;;;;;;;;;;;;;;;16.82;100.00;100563.28;6247826;28;20053;-74
2023/09/25 03:37:12;;;;;;;3.42;0.90;;;;;;;16.81;100.00;100556.31;6245893;28;19931;-74
2023/09/25 03:40:13;;;;;;;5.25;1.13;;;;;;;16.68;100.00;100548.50;6247149;28;20139;-74
2023/09/25 03:43:14;;;;;;;1.17;0.88;;;;;;;16.73;100.00;100538.44;6247050;28;20046;-74
2023/09/25 03:46:15;;;;;;;1.25;0.90;;;;;;;16.70;100.00;100541.31;6246759;28;20103;-74
2023/09/25 03:49:16;;;;;;;2.67;1.10;;;;;;;16.76;100.00;100541.78;6245497;28;20053;-74
2023/09/25 03:52:17;;;;;;;3.42;1.23;;;;;;;16.81;100.00;100537.03;6246556;28;20563;-74
2023/09/25 03:55:17;;;;;;;0.88;0.88;;;;;;;16.64;100.00;100544.44;6246660;28;20107;-74
2023/09/25 03:58:21;;;;;;;2.65;1.17;;;;;;;16.67;100.00;100549.44;6245288;28;20060;-74
2023/09/25 04:01:22;;;;;;;0.93;0.90;;;;;;;16.75;100.00;100540.94;6258751;28;20590;-74
2023/09/25 04:04:22;;;;;;;1.38;1.25;;;;;;;16.72;100.00;100549.94;6269063;28;20269;-74
2023/09/25 04:07:23;;;;;;;4.75;1.25;;;;;;;16.75;100.00;100550.66;6270099;28;20117;-74
2023/09/25 04:10:27;;;;;;;2.08;1.15;;;;;;;16.64;100.00;100551.50;6269936;28;20407;-74
2023/09/25 04:13:27;;;;;;;1.13;0.82;;;;;;;16.63;100.00;100558.56;6269673;28;20131;-74
2023/09/25 04:16:28;;;;;;;4.18;1.00;;;;;;;16.76;100.00;100563.72;6270738;28;20071;-74
2023/09/25 04:19:30;;;;;;;2.08;1.10;;;;;;;16.85;100.00;100578.00;6269623;28;20195;-74
2023/09/25 04:22:31;;;;;;;4.55;0.80;;;;;;;16.71;100.00;100571.97;6245040;28;20639;-73
2023/09/25 04:25:32;;;;;;;1.98;1.17;;;;;;;16.70;100.00;100577.38;6244555;28;20505;-74
2023/09/25 04:28:33;;;;;;;2.47;0.90;;;;;;;16.66;100.00;100583.84;6246195;28;20081;-74
2023/09/25 04:31:34;;;;;;;2.58;1.17;;;;;;;16.73;100.00;100587.66;6260704;28;20063;-74
2023/09/25 04:34:38;;;;;;;4.35;1.20;;;;;;;16.73;100.00;100593.75;6265315;28;20055;-74
2023/09/25 04:37:40;;;;;;;3.50;1.40;;;;;;;16.75;100.00;100606.00;6270281;28;20394;-74
2023/09/25 04:40:46;;;;;;;4.03;1.10;;;;;;;16.78;100.00;100611.00;6262272;28;20061;-74
2023/09/25 04:43:49;;;;;;;1.42;1.10;;;;;;;16.82;100.00;100610.72;6253273;28;20057;-74
2023/09/25 04:46:50;;;;;;;1.20;1.02;;;;;;;16.85;100.00;100618.34;6264195;28;20135;-74
2023/09/25 04:49:51;;;;;;;1.17;1.08;;;;;;;16.77;100.00;100628.63;6275465;28;20127;-74
2023/09/25 04:52:52;;;;;;;2.60;1.10;;;;;;;16.81;100.00;100631.91;6272517;28;20057;-74
2023/09/25 04:55:53;;;;;;;3.78;0.85;;;;;;;16.88;100.00;100638.34;6273113;28;20053;-74
2023/09/25 04:58:55;;;;;;;2.35;1.17;;;;;;;16.94;100.00;100637.03;6274201;28;20049;-74
2023/09/25 05:01:55;;;;;;;;;;;;;;;16.99;100.00;100643.63;6276082;28;20052;-74
2023/09/25 05:04:59;;;;;;;5.10;1.20;;;;;;;16.92;100.00;100642.44;6275317;28;19920;-74
2023/09/25 05:08:02;;;;;;;1.75;1.42;;;;;;;16.88;100.00;100641.84;6260010;28;20132;-74
2023/09/25 05:11:03;;;;;;;1.58;0.85;;;;;;;16.88;100.00;100639.22;6265967;28;20096;-74
2023/09/25 05:14:05;;;;;;;5.70;1.30;;;;;;;16.87;100.00;100640.16;6275385;28;20103;-74
2023/09/25 05:17:08;;;;;;;3.42;1.33;;;;;;;16.74;100.00;100642.06;6273630;28;20048;-74
2023/09/25 05:20:18;;;;;;;1.50;0.90;;;;;;;16.86;100.00;100645.53;6272763;28;20174;-74
2023/09/25 05:23:20;;;;;;;4.25;1.20;;;;;;;16.88;100.00;100644.47;6250588;28;20053;-73
2023/09/25 05:26:23;;;;;;;1.83;0.88;;;;;;;16.95;100.00;100650.09;6259993;28;20048;-74
2023/09/25 05:29:24;;;;;;;1.38;1.17;;;;;;;16.98;100.00;100644.59;6256880;28;20131;-74
2023/09/25 05:32:25;;;;;;;2.03;1.20;;;;;;;17.04;100.00;100652.00;6251748;28;20053;-74
2023/09/25 05:35:26;;;;;;;3.50;1.25;;;;;;;17.04;100.00;100661.72;6259600;28;20480;-74
2023/09/25 05:38:27;;;;;;;3.78;1.30;;;;;;;17.17;100.00;100665.06;6266087;28;20130;-74
2023/09/25 05:41:28;;;;;;;0.88;0.75;;;;;;;17.04;100.00;100662.56;6274599;28;20053;-74
2023/09/25 05:44:29;;;;;;;1.27;0.90;;;;;;;17.18;100.00;100666.75;6273340;28;20105;-74
2023/09/25 05:47:30;;;;;;;2.35;0.80;;;;;;;17.29;100.00;100664.09;6262503;28;20083;-74
2023/09/25 05:50:33;;;;;;;2.95;1.38;;;;;;;17.25;100.00;100667.09;6254024;28;20049;-74
2023/09/25 05:53:34;;;;;;;2.33;1.10;;;;;;;17.08;100.00;100663.16;6256063;28;20056;-74
2023/09/25 05:56:38;;;;;;;2.78;1.20;;;;;;;17.12;100.00;100669.88;6254938;28;20122;-74
2023/09/25 05:59:39;;;;;;;3.95;1.17;;;;;;;17.09;100.00;100668.31;6256129;28;20072;-74
2023/09/25 06:02:41;;;;;;;1.33;1.02;;;;;;;17.37;100.00;100667.94;6255362;28;20511;-74
2023/09/25 06:05:43;;;;;;;;;;;;;;;17.42;100.00;100677.16;6253072;28;20118;-74
2023/09/25 06:08:44;;;;;;;3.72;0.95;;;;;;;17.43;100.00;100667.44;6254090;28;19940;-74
2023/09/25 06:11:50;;;;;;;4.93;1.02;;;;;;;17.58;100.00;100662.72;6254600;28;20048;-74
2023/09/25 06:14:51;;;;;;;2.63;0.98;;;;;;;17.65;100.00;100663.91;6255019;28;20052;-74
2023/09/25 06:17:52;;;;;;;3.90;1.20;;;;;;;17.77;100.00;100667.34;6253896;28;20057;-73
2023/09/25 06:20:53;;;;;;;8.23;1.20;;;;;;;17.81;100.00;100661.69;6253309;28;20050;-74
2023/09/25 06:23:57;;;;;;;4.55;0.90;;;;;;;18.02;100.00;100663.56;6253937;28;20513;-74
2023/09/25 06:27:00;;;;;;;4.07;1.17;;;;;;;18.06;100.00;100673.75;6255725;28;20103;-74
2023/09/25 06:30:03;;;;;;;2.90;0.98;;;;;;;18.14;100.00;100662.56;6257190;28;20041;-74
2023/09/25 06:33:06;;;;;;;3.78;1.02;;;;;;;18.17;100.00;100672.84;6261369;28;20137;-74
2023/09/25 06:36:10;;;;;;;1.75;0.80;;;;;;;18.53;100.00;100670.72;6256287;28;20053;-74
2023/09/25 06:39:11;;;;;;;3.42;1.15;;;;;;;18.63;100.00;100673.41;6267927;28;20049;-74
2023/09/25 06:42:12;;;;;;;5.10;1.02;;;;;;;18.56;100.00;100667.00;6269446;28;20131;-74
2023/09/25 06:45:13;;;;;;;3.00;1.02;;;;;;;18.75;100.00;100667.09;6250447;28;20828;-74
2023/09/25 06:48:14;;;;;;;6.43;0.93;;;;;;;18.99;100.00;100671.28;6256739;28;20041;-74
2023/09/25 06:51:17;;;;;;;3.10;1.65;;;;;;;19.00;100.00;100671.13;6262884;28;20053;-74
2023/09/25 06:54:18;;;;;;;1.30;0.95;;;;;;;19.38;100.00;100668.75;6270188;28;20460;-74
2023/09/25 06:57:19;;;;;;;3.80;1.00;;;;;;;19.39;100.00;100681.84;6247642;28;20049;-74
2023/09/25 07:00:20;;;;;;;5.00;1.23;;;;;;;19.45;100.00;100685.75;6254147;28;20111;-74
2023/09/25 07:03:21;;;;;;;2.97;1.52;;;;;;;19.63;100.00;100691.22;6271915;28;20274;-74
2023/09/25 07:06:22;;;;;;;3.20;1.20;;;;;;;19.61;100.00;100683.41;6247784;28;20057;-74
2023/09/25 07:09:22;;;;;;;5.78;1.60;;;;;;;19.83;100.00;100692.97;6246484;28;20456;-74
2023/09/25 07:12:24;;;;;;;8.55;1.55;;;;;;;20.05;100.00;100691.00;6252477;28;20511;-74
2023/09/25 07:15:25;;;;;;;3.03;1.15;;;;;;;20.04;100.00;100684.06;6249065;28;20139;-74
2023/09/25 07:18:26;;;;;;;6.35;1.30;;;;;;;20.12;100.00;100682.38;6249885;28;20049;-74
2023/09/25 07:21:29;;;;;;;3.35;1.30;;;;;;;20.37;100.00;100681.94;6270783;28;20092;-74
2023/09/25 07:24:32;;;;;;;1.90;1.10;;;;;;;20.37;100.00;100676.63;6265524;28;20070;-74
2023/09/25 07:27:33;;;;;;;4.55;1.13;;;;;;;20.61;100.00;100676.19;6270859;28;20049;-74
2023/09/25 07:30:34;;;;;;;6.80;1.20;;;;;;;20.82;100.00;100676.84;6251738;28;20049;-74
2023/09/25 07:33:37;;;;;;;3.50;1.15;;;;;;;20.92;100.00;100674.16;6245534;28;20046;-74
2023/09/25 07:36:38;;;;;;;1.73;1.15;;;;;;;20.82;100.00;100676.84;6244910;28;20493;-74
2023/09/25 07:39:40;;;;;;;9.37;2.13;;;;;;;21.06;100.00;100663.03;6246654;28;20056;-74
2023/09/25 07:42:43;;;;;;;8.70;1.30;;;;;;;21.12;100.00;100673.06;6267974;28;20515;-74
2023/09/25 07:45:44;;;;;;;3.97;1.10;;;;;;;21.23;100.00;100680.00;6271442;28;20413;-74
2023/09/25 07:48:45;;;;;;;2.40;1.07;;;;;;;21.29;99.90;100682.06;6269585;28;20075;-74
2023/09/25 07:51:47;;;;;;;6.38;2.80;;;;;;;21.52;100.00;100690.47;6248449;28;20050;-74
2023/09/25 07:54:53;;;;;;;7.80;2.00;;;;;;;21.41;99.40;100695.94;6242669;28;20045;-74
2023/09/25 07:57:54;;;;;;;3.45;1.60;;;;;;;21.61;92.79;100698.53;6245837;28;20049;-75
2023/09/25 08:01:07;;;;;;;1.98;1.00;;;;;;;21.53;91.41;100696.63;6244780;28;20045;-74
2023/09/25 08:04:08;;;;;;;2.83;1.35;;;;;;;21.72;92.07;100706.28;6245883;28;20226;-74
2023/09/25 08:07:14;;;;;;;4.13;1.10;;;;;;;21.70;89.94;100711.75;6245065;28;20053;-74
2023/09/25 08:10:17;;;;;;;3.38;1.55;;;;;;;21.88;89.74;100701.13;6246540;28;20049;-74
2023/09/25 08:13:18;;;;;;;6.05;1.67;;;;;;;22.21;90.05;100695.28;6245062;28;20053;-74
2023/09/25 08:16:23;;;;;;;;;;;;;;;22.29;88.70;100701.53;6246081;28;20506;-74
2023/09/25 08:19:24;;;;;;;3.78;1.65;;;;;;;22.43;86.64;100702.78;6245097;28;19921;-74
2023/09/25 08:22:26;;;;;;;4.65;1.20;;;;;;;22.48;85.96;100695.19;6253988;28;20056;-74
2023/09/25 08:25:27;;;;;;;4.50;1.20;;;;;;;22.61;86.82;100697.44;6241274;28;20056;-75
2023/09/25 08:28:29;;;;;;;4.18;1.40;;;;;;;22.98;85.09;100701.66;6244100;28;20045;-74
2023/09/25 08:31:34;;;;;;;8.02;3.78;;;;;;;22.94;85.26;100702.97;6245448;28;20053;-74
2023/09/25 08:34:35;;;;;;;6.93;4.05;;;;;;;23.25;86.51;100699.81;6245740;28;20382;-74
2023/09/25 08:37:39;;;;;;;5.72;2.10;;;;;;;23.44;84.43;100696.88;6244331;28;20045;-74
2023/09/25 08:40:47;;;;;;;8.60;1.65;;;;;;;23.45;83.81;100697.69;6245515;28;20061;-74
2023/09/25 08:43:48;;;;;;;2.50;1.48;;;;;;;23.48;81.22;100703.53;6244623;28;20057;-74
2023/09/25 08:46:49;;;;;;;36.42;13.15;;;;;;;23.56;81.97;100694.75;6244699;28;20056;-74
2023/09/25 08:49:51;;;;;;;7.10;4.13;;;;;;;23.68;81.67;100695.25;6244463;28;20041;-74
2023/09/25 08:52:56;;;;;;;26.58;7.78;;;;;;;23.81;80.73;100697.50;6245828;28;20114;-75
2023/09/25 08:55:57;;;;;;;4.45;1.88;;;;;;;23.76;79.59;100697.94;6245489;28;20049;-74
2023/09/25 08:59:03;;;;;;;3.90;1.40;;;;;;;23.73;79.12;100690.28;6244368;28;20444;-74
2023/09/25 09:02:08;;;;;;;3.10;1.23;;;;;;;23.92;80.41;100686.50;6244343;28;20050;-74
2023/09/25 09:05:19;;;;;;;4.53;1.20;;;;;;;24.11;80.16;100688.84;6245479;28;20085;-74
2023/09/25 09:08:22;;;;;;;4.30;1.30;;;;;;;24.19;77.69;100682.66;6245708;28;20081;-74
2023/09/25 09:11:23;;;;;;;6.18;1.70;;;;;;;24.17;78.25;100683.84;6244225;28;20525;-74
2023/09/25 09:14:43;;;;;;;4.22;1.83;;;;;;;24.43;77.76;100681.81;6244504;28;20064;-74
2023/09/25 09:17:45;;;;;;;8.65;2.95;;;;;;;24.42;77.87;100682.84;6244046;28;20053;-74
2023/09/25 09:20:46;;;;;;;20.95;8.63;;;;;;;24.50;77.80;100682.00;6244174;28;20584;-74
2023/09/25 09:23:47;;;;;;;3.95;2.10;;;;;;;24.81;77.08;100683.94;6244097;28;20103;-74
2023/09/25 09:26:50;;;;;;;1.43;1.13;;;;;;;24.59;74.75;100683.66;6246795;28;20454;-73
2023/09/25 09:29:52;;;;;;;6.63;1.50;;;;;;;24.93;75.63;100683.41;6248512;28;20304;-73
2023/09/25 09:32:53;;;;;;;13.77;4.07;;;;;;;25.10;75.14;100686.84;6253541;28;20497;-74
2023/09/25 09:35:54;;;;;;;2.85;1.63;;;;;;;25.01;74.06;100695.88;6262292;28;20079;-74
2023/09/25 09:38:59;;;;;;;5.15;1.40;;;;;;;25.22;74.37;100691.81;6271462;28;20500;-74
2023/09/25 09:42:03;;;;;;;8.95;1.70;;;;;;;25.46;74.06;100688.22;6273901;28;20397;-74
2023/09/25 09:45:08;;;;;;;8.05;1.95;;;;;;;25.83;72.49;100698.16;6273089;28;20049;-74
2023/09/25 09:48:13;;;;;;;3.38;1.85;;;;;;;25.73;71.61;100685.03;6272633;28;20382;-74
2023/09/25 09:51:17;;;;;;;2.33;1.40;;;;;;;25.83;69.93;100695.50;6273135;28;20052;-74
2023/09/25 09:54:21;;;;;;;6.57;2.35;;;;;;;25.80;71.05;100695.84;6274002;28;20051;-74
2023/09/25 09:57:23;;;;;;;6.82;2.30;;;;;;;25.63;71.61;100692.44;6272629;28;20483;-74
2023/09/25 10:00:24;;;;;;;;;;;;;;;25.84;70.37;100693.63;6274399;28;20052;-73
2023/09/25 10:03:25;;;;;;;19.50;7.17;;;;;;;25.98;69.14;100690.22;6272002;28;20439;-74
2023/09/25 10:06:28;;;;;;;14.60;6.88;;;;;;;26.33;67.77;100685.25;6273803;28;20061;-73
2023/09/25 10:09:30;;;;;;;13.80;4.97;;;;;;;26.57;70.38;100683.38;6272016;28;20276;-73
2023/09/25 10:12:45;;;;;;;19.17;7.15;;;;;;;26.67;68.91;100684.78;6273499;28;20053;-73
2023/09/25 10:15:56;;;;;;;6.18;2.78;;;;;;;26.81;67.02;100683.13;6273130;28;20144;-74
2023/09/25 10:18:57;;;;;;;7.00;2.67;;;;;;;26.66;65.79;100679.59;6272467;28;20186;-73
2023/09/25 10:22:11;;;;;;;7.50;2.58;;;;;;;26.37;68.62;100683.88;6271808;28;20505;-73
2023/09/25 10:25:12;;;;;;;3.35;2.10;;;;;;;26.56;68.08;100679.84;6272031;28;20049;-74
2023/09/25 10:28:23;;;;;;;5.63;2.45;;;;;;;26.88;68.54;100675.19;6273136;28;20049;-73
2023/09/25 10:31:29;;;;;;;10.48;2.25;;;;;;;26.82;68.77;100676.75;6271402;28;20056;-73
2023/09/25 10:34:31;;;;;;;8.07;2.20;;;;;;;26.67;66.96;100673.25;6271606;28;20052;-73
2023/09/25 10:37:31;;;;;;;9.45;2.20;;;;;;;26.70;70.08;100667.53;6272407;28;20527;-74
2023/09/25 10:40:35;;;;;;;3.25;2.38;;;;;;;26.71;67.67;100664.66;6272975;28;20067;-74
2023/09/25 10:43:37;;;;;;;11.55;2.78;;;;;;;27.08;68.68;100670.09;6271378;28;20500;-74
2023/09/25 10:46:39;;;;;;;7.47;2.28;;;;;;;27.19;68.58;100668.78;6271219;28;20088;-74
2023/09/25 10:49:40;;;;;;;11.68;2.78;;;;;;;27.17;67.38;100670.81;6272865;28;20095;-74
2023/09/25 10:52:41;;;;;;;4.35;2.60;;;;;;;26.82;66.41;100660.69;6272446;28;20049;-74
2023/09/25 10:55:43;;;;;;;10.48;2.50;;;;;;;26.76;68.44;100668.63;6272312;28;20107;-74
2023/09/25 10:58:47;;;;;;;6.97;2.90;;;;;;;26.91;65.75;100662.28;6272580;28;20045;-74
2023/09/25 11:01:48;;;;;;;7.40;2.88;;;;;;;27.00;66.31;100656.81;6271934;28;20467;-73
2023/09/25 11:04:49;;;;;;;7.05;3.13;;;;;;;27.22;67.11;100652.31;6271335;28;20088;-73
2023/09/25 11:07:51;;;;;;;10.30;3.25;;;;;;;26.94;65.89;100648.50;6271893;28;20051;-74
2023/09/25 11:10:52;;;;;;;8.27;2.50;;;;;;;26.82;66.66;100647.31;6272297;28;20048;-74
2023/09/25 11:13:55;;;;;;;11.77;2.80;;;;;;;27.00;66.19;100652.28;6270454;28;20048;-73
2023/09/25 11:16:57;;;;;;;7.38;2.80;;;;;;;27.06;67.07;100646.19;6272049;28;20071;-74
2023/09/25 11:19:58;;;;;;;;;;;;;;;27.02;66.06;100649.44;6272646;28;20041;-73
2023/09/25 11:23:11;;;;;;;5.60;2.70;;;;;;;26.73;63.79;100649.25;6270910;28;19921;-74
2023/09/25 11:26:11;;;;;;;2.72;2.40;;;;;;;26.66;64.44;100648.31;6270582;28;20068;-74
2023/09/25 11:29:12;;;;;;;5.63;2.80;;;;;;;26.21;64.00;100649.25;6270238;28;20053;-73
2023/09/25 11:32:16;;;;;;;5.47;2.70;;;;;;;26.59;68.13;100644.72;6270503;28;20178;-73
2023/09/25 11:35:20;;;;;;;7.13;2.60;;;;;;;26.76;66.08;100640.00;6270416;28;20056;-73
2023/09/25 11:38:23;;;;;;;10.32;3.17;;;;;;;26.77;64.57;100639.00;6270466;28;20451;-73
2023/09/25 11:41:24;;;;;;;8.77;3.03;;;;;;;26.63;65.24;100634.50;6271309;28;20483;-73
2023/09/25 11:44:28;;;;;;;13.30;2.80;;;;;;;26.73;66.85;100630.50;6271364;28;20417;-74
2023/09/25 11:47:29;;;;;;;4.88;2.30;;;;;;;26.79;65.78;100626.28;6269908;28;20059;-74
2023/09/25 11:50:32;;;;;;;7.70;2.73;;;;;;;27.01;67.32;100629.00;6270699;28;20049;-74
2023/09/25 11:53:33;;;;;;;6.18;2.95;;;;;;;27.08;64.87;100627.25;6271126;28;20128;-74
2023/09/25 11:56:34;;;;;;;3.88;2.50;;;;;;;27.08;63.66;100624.56;6270129;28;20059;-74
2023/09/25 11:59:35;;;;;;;7.05;2.38;;;;;;;27.12;65.19;100629.34;6269898;28;20052;-74
2023/09/25 12:02:36;;;;;;;6.40;2.90;;;;;;;26.97;65.71;100633.91;6271259;28;20049;-74
2023/09/25 12:05:37;;;;;;;4.63;2.95;;;;;;;26.93;65.41;100630.78;6270371;28;20060;-74
2023/09/25 12:08:38;;;;;;;6.97;2.97;;;;;;;26.98;64.39;100624.03;6269594;28;20052;-74
2023/09/25 12:11:40;;;;;;;7.05;2.83;;;;;;;26.98;64.64;100622.19;6269636;28;20148;-74
2023/09/25 12:14:41;;;;;;;4.80;2.70;;;;;;;27.23;62.71;100628.06;6269349;28;20443;-74
2023/09/25 12:17:43;;;;;;;8.57;2.60;;;;;;;27.16;63.24;100623.59;6270599;28;20048;-74
2023/09/25 12:20:46;;;;;;;10.88;3.38;;;;;;;27.30;62.89;100634.34;6269195;28;20056;-74
2023/09/25 12:23:47;;;;;;;5.75;2.60;;;;;;;27.16;62.92;100628.97;6270770;28;20106;-73
2023/09/25 12:26:48;;;;;;;5.88;2.85;;;;;;;27.28;62.56;100622.97;6270608;28;20053;-73
2023/09/25 12:29:50;;;;;;;7.63;2.70;;;;;;;27.25;63.66;100622.53;6270656;28;20523;-74
2023/09/25 12:32:52;;;;;;;4.75;2.53;;;;;;;27.35;61.15;100622.22;6254789;28;20050;-74
2023/09/25 12:35:53;;;;;;;9.50;2.90;;;;;;;27.29;60.92;100613.09;6242791;28;20053;-74
2023/09/25 12:38:53;;;;;;;7.90;3.33;;;;;;;27.33;62.50;100617.88;6245762;28;20313;-74
2023/09/25 12:41:54;;;;;;;10.10;2.58;;;;;;;27.63;61.88;100617.75;6244269;28;20099;-73
2023/09/25 12:44:56;;;;;;;5.72;2.50;;;;;;;27.77;60.45;100612.53;6244293;28;20075;-73
2023/09/25 12:47:59;;;;;;;23.15;3.35;;;;;;;28.03;61.64;100610.09;6243934;28;20497;-74
2023/09/25 12:51:00;;;;;;;4.90;2.60;;;;;;;28.11;60.00;100611.81;6244258;28;20060;-73
2023/09/25 12:54:01;;;;;;;5.10;3.03;;;;;;;28.05;57.93;100618.78;6245064;28;20482;-74
2023/09/25 12:57:04;;;;;;;10.07;2.92;;;;;;;28.23;58.22;100604.03;6245411;28;20136;-74
2023/09/25 13:00:08;;;;;;;4.75;2.50;;;;;;;28.03;57.83;100602.03;6245701;28;20053;-74
2023/09/25 13:03:10;;;;;;;9.63;2.85;;;;;;;28.05;57.91;100609.91;6250110;28;20119;-74
2023/09/25 13:06:10;;;;;;;;;;;;;;;28.01;56.34;100609.47;6249578;28;20053;-74
2023/09/25 13:09:12;;;;;;;8.93;2.80;;;;;;;28.16;57.46;100612.03;6250458;28;19967;-74
2023/09/25 13:12:13;;;;;;;;;;;;;;;28.47;58.24;100613.47;6249675;28;20408;-74
2023/09/25 13:15:19;;;;;;;7.07;2.60;;;;;;;28.60;58.29;100620.78;6250170;28;20345;-74
2023/09/25 13:18:20;;;;;;;12.75;2.95;;;;;;;28.69;55.61;100623.13;6248793;28;20103;-74
2023/09/25 13:21:21;;;;;;;8.45;2.58;;;;;;;28.56;56.21;100615.03;6248912;28;20049;-74
2023/09/25 13:24:22;;;;;;;10.93;2.85;;;;;;;28.44;56.84;100613.88;6250226;28;20466;-73
2023/09/25 13:27:23;;;;;;;6.15;3.10;;;;;;;28.44;56.47;100622.75;6248662;28;20053;-74
2023/09/25 13:30:23;;;;;;;8.10;2.83;;;;;;;28.12;55.00;100627.69;6249891;28;20045;-74
2023/09/25 13:33:24;;;;;;;9.30;2.55;;;;;;;28.26;55.71;100622.44;6249687;28;20049;-73
2023/09/25 13:36:26;;;;;;;7.47;2.75;;;;;;;28.20;55.65;100629.41;6249742;28;20084;-73
2023/09/25 13:39:28;;;;;;;11.43;2.50;;;;;;;28.28;56.05;100623.06;6249632;28;20048;-74
2023/09/25 13:42:29;;;;;;;5.82;2.47;;;;;;;28.18;55.94;100628.75;6248465;28;20057;-74
2023/09/25 13:45:29;;;;;;;13.05;2.38;;;;;;;27.91;54.36;100625.88;6248126;28;20090;-73
2023/09/25 13:48:32;;;;;;;5.97;2.70;;;;;;;27.91;53.70;100614.31;6249282;28;20046;-73
2023/09/25 13:51:33;;;;;;;6.40;2.80;;;;;;;28.01;53.54;100614.81;6249426;28;20049;-74
2023/09/25 13:54:34;;;;;;;5.30;2.15;;;;;;;28.16;55.95;100612.03;6249037;28;20105;-74
2023/09/25 13:57:35;;;;;;;5.50;2.50;;;;;;;28.22;54.57;100607.75;6249181;28;20057;-74
2023/09/25 14:00:35;;;;;;;5.55;2.45;;;;;;;28.31;54.70;100607.41;6247862;28;20054;-74
2023/09/25 14:03:41;;;;;;;5.53;2.85;;;;;;;28.08;53.70;100610.31;6248913;28;20103;-74